createdAt,value
2019-04-22T00:01:25.268Z,48.34
2019-04-22T00:04:00.276Z,48.46
2019-04-22T00:06:44.312Z,48.66
2019-04-22T00:09:19.127Z,48.88
2019-04-22T00:11:53.112Z,49.02
2019-04-22T00:14:24.906Z,49.02
2019-04-22T00:17:00.764Z,49.21
2019-04-22T00:19:47.033Z,49.32
2019-04-22T00:22:03.311Z,49.37
2019-04-22T00:24:30.767Z,49.62
2019-04-22T00:27:03.919Z,49.64
2019-04-22T00:29:50.087Z,49.80
2019-04-22T00:32:04.965Z,49.88
2019-04-22T00:34:42.667Z,49.98
2019-04-22T00:37:17.230Z,50.11
2019-04-22T00:39:46.401Z,50.31
2019-04-22T00:42:24.652Z,50.34
2019-04-22T00:44:51.768Z,50.62
2019-04-22T00:47:29.080Z,50.88
2019-04-22T00:50:12.679Z,51.02
2019-04-22T00:52:22.354Z,51.31
2019-04-22T00:55:04.154Z,51.55
2019-04-22T00:57:29.611Z,51.81
2019-04-22T00:59:58.583Z,52.07
2019-04-22T01:02:34.200Z,52.23
2019-04-22T01:05:01.304Z,52.34
2019-04-22T01:07:30.400Z,52.30
2019-04-22T01:10:06.671Z,52.35
2019-04-22T01:12:39.532Z,52.40
2019-04-22T01:15:07.073Z,52.46
2019-04-22T01:17:39.947Z,52.52
2019-04-22T01:20:17.575Z,52.63
2019-04-22T01:22:38.252Z,52.71
2019-04-22T01:25:09.775Z,52.68
2019-04-22T01:27:41.844Z,52.58
2019-04-22T01:30:08.433Z,52.71
2019-04-22T01:32:32.818Z,52.70
2019-04-22T01:35:14.328Z,52.72
2019-04-22T01:37:52.579Z,52.77
2019-04-22T01:40:32.864Z,52.69
2019-04-22T01:43:03.824Z,52.80
2019-04-22T01:45:36.313Z,52.78
2019-04-22T01:47:55.380Z,52.82
2019-04-22T01:50:30.671Z,52.89
2019-04-22T01:53:06.256Z,52.88
2019-04-22T01:55:41.838Z,52.99
2019-04-22T01:58:00.109Z,52.92
2019-04-22T02:00:39.602Z,52.93
2019-04-22T02:03:12.724Z,52.95
2019-04-22T02:05:37.623Z,52.96
2019-04-22T02:08:16.620Z,52.92
2019-04-22T02:10:49.349Z,52.88
2019-04-22T02:13:17.101Z,52.84
2019-04-22T02:15:47.767Z,52.82
2019-04-22T02:20:48.600Z,52.85
2019-04-22T02:26:03.829Z,52.61
2019-04-22T02:34:01.833Z,52.42
2019-04-22T02:36:22.738Z,52.49
2019-04-22T02:41:23.014Z,52.48
2019-04-22T02:59:09.583Z,52.91
2019-04-22T03:01:33.120Z,52.99
2019-04-22T03:04:06.902Z,53.03
2019-04-22T03:06:32.853Z,53.10
2019-04-22T03:09:08.911Z,53.09
2019-04-22T03:14:01.430Z,53.15
2019-04-22T03:16:41.261Z,53.21
2019-04-22T03:19:29.885Z,53.26
2019-04-22T03:21:31.760Z,53.30
2019-04-22T03:24:17.497Z,53.32
2019-04-22T03:29:04.883Z,53.51
2019-04-22T03:42:05.721Z,53.74
2019-04-22T03:47:10.970Z,53.67
2019-04-22T03:54:45.771Z,53.72
2019-04-22T04:02:17.828Z,53.94
2019-04-22T04:04:39.303Z,53.95
2019-04-22T04:07:20.749Z,54.00
2019-04-22T04:12:13.935Z,54.01
2019-04-22T04:17:23.159Z,54.24
2019-04-22T04:22:32.308Z,54.32
2019-04-22T04:30:14.898Z,54.47
2019-04-22T04:37:42.378Z,54.56
2019-04-22T04:47:44.181Z,54.24
2019-04-22T04:53:01.878Z,54.17
2019-04-22T04:55:17.682Z,54.15
2019-04-22T04:57:43.538Z,54.08
2019-04-22T05:02:44.615Z,54.23
2019-04-22T05:05:12.801Z,53.82
2019-04-22T05:07:40.933Z,53.76
2019-04-22T05:12:53.554Z,53.56
2019-04-22T05:20:27.329Z,53.28
2019-04-22T05:22:46.094Z,53.01
2019-04-22T05:25:28.491Z,52.87
2019-04-22T05:27:45.434Z,52.76
2019-04-22T05:32:49.155Z,52.15
2019-04-22T05:35:23.147Z,51.86
2019-04-22T05:37:56.516Z,51.71
2019-04-22T05:40:24.316Z,51.33
2019-04-22T05:42:55.996Z,50.84
2019-04-22T05:47:57.855Z,50.46
2019-04-22T05:50:27.001Z,50.33
2019-04-22T05:52:57.305Z,50.16
2019-04-22T05:58:07.183Z,49.88
2019-04-22T06:03:12.350Z,49.64
2019-04-22T06:05:35.930Z,49.39
2019-04-22T06:08:13.341Z,49.35
2019-04-22T06:10:45.639Z,49.06
2019-04-22T06:13:11.170Z,48.74
2019-04-22T06:15:38.926Z,48.75
2019-04-22T06:18:25.588Z,48.66
2019-04-22T06:20:59.451Z,48.28
2019-04-22T06:23:26.211Z,48.16
2019-04-22T06:31:03.677Z,47.64
2019-04-22T06:33:34.661Z,47.35
2019-04-22T06:36:03.703Z,47.23
2019-04-22T06:38:35.646Z,46.80
2019-04-22T06:41:08.976Z,46.07
2019-04-22T06:46:08.405Z,43.93
2019-04-22T06:48:49.136Z,43.18
2019-04-22T06:51:17.483Z,42.93
2019-04-22T06:53:41.141Z,42.50
2019-04-22T06:56:16.172Z,42.30
2019-04-22T06:58:50.611Z,42.08
2019-04-22T07:03:53.506Z,40.78
2019-04-22T07:06:23.990Z,41.00
2019-04-22T07:09:13.930Z,41.35
2019-04-22T07:11:19.850Z,41.26
2019-04-22T07:13:57.095Z,41.18
2019-04-22T07:16:25.092Z,40.87
2019-04-22T07:18:56.863Z,40.39
2019-04-22T07:21:27.455Z,40.69
2019-04-22T07:24:17.844Z,40.13
2019-04-22T07:26:25.247Z,39.97
2019-04-22T07:28:58.213Z,39.11
2019-04-22T07:31:28.604Z,39.08
2019-04-22T07:34:08.128Z,39.02
2019-04-22T07:36:45.574Z,38.64
2019-04-22T07:39:05.563Z,37.77
2019-04-22T07:41:39.985Z,37.81
2019-04-22T07:44:13.417Z,37.36
2019-04-22T07:46:41.503Z,37.24
2019-04-22T07:49:16.593Z,37.38
2019-04-22T07:54:16.421Z,36.95
2019-04-22T07:56:43.942Z,37.26
2019-04-22T07:59:18.703Z,37.25
2019-04-22T08:01:41.824Z,37.39
2019-04-22T08:04:23.183Z,37.33
2019-04-22T08:06:51.569Z,37.12
2019-04-22T08:14:22.471Z,37.14
2019-04-22T08:17:00.998Z,36.96
2019-04-22T08:21:59.860Z,36.03
2019-04-22T08:24:29.301Z,36.26
2019-04-22T08:26:59.316Z,36.44
2019-04-22T08:29:37.188Z,36.35
2019-04-22T08:32:02.723Z,36.35
2019-04-22T08:34:32.081Z,36.40
2019-04-22T08:37:37.081Z,36.28
2019-04-22T08:39:34.536Z,36.39
2019-04-22T08:42:13.667Z,35.88
2019-04-22T08:49:50.175Z,36.01
2019-04-22T08:52:16.510Z,35.82
2019-04-22T08:54:44.992Z,35.97
2019-04-22T08:57:18.272Z,36.08
2019-04-22T08:59:48.655Z,36.47
2019-04-22T09:02:20.480Z,36.17
2019-04-22T09:04:52.156Z,35.65
2019-04-22T09:07:28.313Z,34.96
2019-04-22T09:09:50.658Z,35.13
2019-04-22T09:12:26.511Z,35.14
2019-04-22T09:15:03.944Z,34.50
2019-04-22T09:19:54.578Z,33.65
2019-04-22T09:22:24.753Z,33.77
2019-04-22T09:24:57.279Z,34.08
2019-04-22T09:27:37.002Z,33.84
2019-04-22T09:29:59.685Z,33.82
2019-04-22T09:32:34.842Z,33.39
2019-04-22T09:35:03.441Z,33.48
2019-04-22T09:37:40.767Z,33.26
2019-04-22T09:40:15.623Z,32.82
2019-04-22T09:42:48.736Z,33.31
2019-04-22T09:45:10.167Z,32.97
2019-04-22T09:47:49.096Z,32.97
2019-04-22T09:50:16.001Z,33.02
2019-04-22T09:52:48.909Z,33.38
2019-04-22T09:55:18.237Z,33.17
2019-04-22T09:57:46.050Z,32.91
2019-04-22T10:00:13.949Z,32.56
2019-04-22T10:02:55.421Z,32.91
2019-04-22T10:05:21.167Z,32.64
2019-04-22T10:07:54.492Z,32.52
2019-04-22T10:10:18.877Z,31.42
2019-04-22T10:12:54.092Z,31.56
2019-04-22T10:15:26.724Z,31.39
2019-04-22T10:18:02.890Z,31.90
2019-04-22T10:20:36.352Z,31.51
2019-04-22T10:23:05.620Z,31.57
2019-04-22T10:25:35.143Z,31.66
2019-04-22T10:28:15.080Z,31.52
2019-04-22T10:30:48.869Z,31.13
2019-04-22T10:33:05.775Z,31.69
2019-04-22T10:35:20.962Z,31.74
2019-04-22T10:37:50.238Z,31.29
2019-04-22T10:40:29.120Z,31.10
2019-04-22T10:42:59.126Z,30.81
2019-04-22T10:45:30.241Z,30.65
2019-04-22T10:48:01.438Z,30.02
2019-04-22T10:50:39.702Z,30.20
2019-04-22T10:53:11.181Z,29.89
2019-04-22T10:55:43.430Z,30.09
2019-04-22T10:58:12.999Z,30.33
2019-04-22T11:00:45.198Z,30.70
2019-04-22T11:03:16.252Z,30.28
2019-04-22T11:05:46.346Z,29.83
2019-04-22T11:08:26.068Z,29.97
2019-04-22T11:11:00.638Z,29.21
2019-04-22T11:13:20.130Z,29.54
2019-04-22T11:15:52.941Z,29.45
2019-04-22T11:18:23.234Z,29.17
2019-04-22T11:20:53.578Z,29.21
2019-04-22T11:23:24.595Z,29.08
2019-04-22T11:25:54.263Z,29.40
2019-04-22T11:28:23.803Z,29.13
2019-04-22T11:30:54.840Z,29.41
2019-04-22T11:33:24.693Z,28.87
2019-04-22T11:35:55.499Z,29.10
2019-04-22T11:38:25.138Z,29.10
2019-04-22T11:40:57.472Z,28.72
2019-04-22T11:43:28.342Z,28.80
2019-04-22T11:45:59.649Z,29.29
2019-04-22T11:48:29.400Z,28.24
2019-04-22T11:51:00.129Z,27.68
2019-04-22T11:53:30.934Z,28.21
2019-04-22T11:56:00.694Z,27.10
2019-04-22T11:58:30.759Z,27.26
2019-04-22T12:01:01.163Z,27.12
2019-04-22T12:03:31.661Z,26.75
2019-04-22T12:06:02.095Z,27.01
2019-04-22T12:08:31.692Z,26.60
2019-04-22T12:11:04.373Z,27.06
2019-04-22T12:13:33.708Z,26.48
2019-04-22T12:16:03.466Z,26.00
2019-04-22T12:18:33.351Z,26.02
2019-04-22T12:21:03.548Z,25.32
2019-04-22T12:23:34.847Z,25.48
2019-04-22T12:26:10.872Z,25.44
2019-04-22T12:28:37.053Z,25.38
2019-04-22T12:31:06.928Z,24.94
2019-04-22T12:33:37.122Z,24.49
2019-04-22T12:36:08.638Z,24.25
2019-04-22T12:38:39.770Z,24.92
2019-04-22T12:41:11.999Z,25.17
2019-04-22T12:43:41.072Z,25.67
2019-04-22T12:46:12.076Z,26.19
2019-04-22T12:48:43.245Z,26.12
2019-04-22T12:51:13.275Z,25.95
2019-04-22T12:53:44.558Z,25.41
2019-04-22T12:56:15.419Z,25.47
2019-04-22T12:58:45.792Z,25.91
2019-04-22T13:01:15.408Z,26.11
2019-04-22T13:03:46.484Z,25.94
2019-04-22T13:06:17.604Z,25.74
2019-04-22T13:08:47.773Z,26.08
2019-04-22T13:11:21.356Z,26.47
2019-04-22T13:13:49.368Z,26.57
2019-04-22T13:16:20.594Z,26.04
2019-04-22T13:18:57.608Z,24.88
2019-04-22T13:21:22.756Z,24.96
2019-04-22T13:23:53.109Z,24.93
2019-04-22T13:26:23.154Z,25.10
2019-04-22T13:28:54.754Z,25.15
2019-04-22T13:31:24.531Z,25.54
2019-04-22T13:33:57.200Z,25.46
2019-04-22T13:36:27.670Z,25.71
2019-04-22T13:38:58.604Z,26.15
2019-04-22T13:41:39.794Z,25.77
2019-04-22T13:44:01.838Z,26.17
2019-04-22T13:46:33.621Z,26.11
2019-04-22T13:49:37.796Z,26.45
2019-04-22T13:52:02.398Z,27.03
2019-04-22T13:56:55.403Z,26.95
2019-04-22T13:59:18.313Z,27.37
2019-04-22T14:01:46.412Z,27.54
2019-04-22T14:04:20.584Z,27.13
2019-04-22T14:06:50.158Z,27.19
2019-04-22T14:09:20.439Z,26.73
2019-04-22T14:11:57.785Z,26.41
2019-04-22T14:14:22.139Z,26.59
2019-04-22T14:16:53.212Z,27.11
2019-04-22T14:19:23.749Z,27.55
2019-04-22T14:21:53.772Z,27.60
2019-04-22T14:24:23.769Z,27.65
2019-04-22T14:27:08.738Z,27.72
2019-04-22T14:29:25.860Z,27.73
2019-04-22T14:32:06.960Z,27.90
2019-04-22T14:34:28.377Z,27.53
2019-04-22T14:36:59.308Z,27.82
2019-04-22T14:39:30.220Z,28.00
2019-04-22T14:42:20.407Z,28.13
2019-04-22T14:45:18.839Z,27.52
2019-04-22T14:47:26.373Z,27.34
2019-04-22T14:49:55.990Z,27.64
2019-04-22T14:52:31.439Z,27.40
2019-04-22T14:54:50.813Z,27.01
2019-04-22T14:57:07.469Z,27.11
2019-04-22T14:59:37.780Z,26.89
2019-04-22T15:02:07.660Z,27.26
2019-04-22T15:04:39.289Z,27.34
2019-04-22T15:07:08.978Z,27.46
2019-04-22T15:09:39.900Z,27.11
2019-04-22T15:12:18.571Z,27.20
2019-04-22T15:14:41.683Z,27.22
2019-04-22T15:17:13.121Z,27.46
2019-04-22T15:19:45.573Z,27.08
2019-04-22T15:22:16.767Z,26.70
2019-04-22T15:24:46.978Z,26.92
2019-04-22T15:27:16.465Z,27.01
2019-04-22T15:29:47.330Z,26.78
2019-04-22T15:32:17.623Z,26.80
2019-04-22T15:34:47.208Z,26.87
2019-04-22T15:37:17.826Z,26.39
2019-04-22T15:39:47.919Z,26.56
2019-04-22T15:42:22.840Z,26.68
2019-04-22T15:44:51.577Z,26.65
2019-04-22T15:47:22.858Z,26.79
2019-04-22T15:49:53.903Z,26.72
2019-04-22T15:52:33.312Z,26.68
2019-04-22T15:54:56.298Z,26.75
2019-04-22T15:57:26.653Z,26.82
2019-04-22T16:00:12.089Z,26.49
2019-04-22T16:02:27.919Z,26.94
2019-04-22T16:04:58.805Z,26.93
2019-04-22T16:07:29.742Z,26.97
2019-04-22T16:09:59.669Z,26.94
2019-04-22T16:12:37.699Z,27.15
2019-04-22T16:15:03.091Z,27.52
2019-04-22T16:17:32.789Z,27.61
2019-04-22T16:20:03.693Z,28.08
2019-04-22T16:22:36.986Z,28.13
2019-04-22T16:25:11.281Z,28.13
2019-04-22T16:27:42.611Z,28.19
2019-04-22T16:30:13.298Z,28.44
2019-04-22T16:32:43.522Z,28.73
2019-04-22T16:35:14.515Z,28.89
2019-04-22T16:37:44.362Z,28.74
2019-04-22T16:40:14.682Z,29.02
2019-04-22T16:42:52.771Z,29.29
2019-04-22T16:45:19.869Z,29.48
2019-04-22T16:47:49.567Z,29.60
2019-04-22T16:50:20.640Z,29.89
2019-04-22T16:52:50.317Z,30.04
2019-04-22T16:55:21.066Z,30.18
2019-04-22T16:57:50.628Z,30.49
2019-04-22T17:00:20.664Z,30.63
2019-04-22T17:03:08.790Z,30.62
2019-04-22T17:05:56.846Z,30.65
2019-04-22T17:08:26.708Z,30.56
2019-04-22T17:10:56.153Z,30.58
2019-04-22T17:13:30.260Z,30.81
2019-04-22T17:15:59.075Z,30.35
2019-04-22T17:18:28.086Z,29.79
2019-04-22T17:20:58.476Z,29.52
2019-04-22T17:23:29.564Z,29.08
2019-04-22T17:26:00.666Z,29.04
2019-04-22T17:28:31.287Z,29.42
2019-04-22T17:31:01.903Z,29.71
2019-04-22T17:33:32.713Z,30.23
2019-04-22T17:36:03.346Z,30.42
2019-04-22T17:38:42.828Z,31.00
2019-04-22T17:41:17.219Z,31.18
2019-04-22T17:43:59.204Z,31.48
2019-04-22T17:46:32.407Z,31.72
2019-04-22T17:49:26.718Z,32.05
2019-04-22T17:52:15.670Z,32.35
2019-04-22T17:54:43.052Z,32.44
2019-04-22T17:57:12.331Z,32.69
2019-04-22T17:59:45.211Z,33.20
2019-04-22T18:02:13.385Z,33.25
2019-04-22T18:04:33.943Z,33.32
2019-04-22T18:07:24.830Z,33.37
2019-04-22T18:10:16.227Z,33.23
2019-04-22T18:12:27.238Z,33.09
2019-04-22T18:14:59.518Z,33.09
2019-04-22T18:17:25.428Z,33.34
2019-04-22T18:19:51.818Z,32.99
2019-04-22T18:22:19.821Z,33.06
2019-04-22T18:24:54.137Z,32.86
2019-04-22T18:27:40.196Z,32.76
2019-04-22T18:29:55.793Z,32.87
2019-04-22T18:32:25.679Z,32.99
2019-04-22T18:34:53.133Z,33.27
2019-04-22T18:37:37.877Z,33.33
2019-04-22T18:40:02.228Z,33.34
2019-04-22T18:42:34.841Z,33.47
2019-04-22T18:45:26.043Z,33.54
2019-04-22T18:47:38.730Z,33.67
2019-04-22T18:50:08.610Z,33.91
2019-04-22T18:53:15.989Z,34.04
2019-04-22T18:55:38.831Z,34.19
2019-04-22T19:00:52.735Z,34.49
2019-04-22T19:03:27.719Z,34.55
2019-04-22T19:06:27.585Z,34.63
2019-04-22T19:08:55.673Z,34.61
2019-04-22T19:11:16.607Z,34.63
2019-04-22T19:14:03.748Z,34.84
2019-04-22T19:16:31.023Z,34.76
2019-04-22T19:19:18.418Z,34.89
2019-04-22T19:21:44.517Z,35.17
2019-04-22T19:23:54.345Z,35.22
2019-04-22T19:26:41.001Z,35.20
2019-04-22T19:29:03.817Z,35.43
2019-04-22T19:31:28.551Z,35.50
2019-04-22T19:34:03.017Z,35.58
2019-04-22T19:36:40.918Z,35.75
2019-04-22T19:39:08.011Z,35.74
2019-04-22T19:41:45.431Z,35.82
2019-04-22T19:44:13.223Z,36.04
2019-04-22T19:46:55.745Z,36.11
2019-04-22T19:49:29.118Z,36.47
2019-04-22T19:51:57.287Z,36.72
2019-04-22T19:54:19.248Z,36.89
2019-04-22T19:56:40.323Z,36.98
2019-04-22T19:59:14.958Z,37.07
2019-04-22T20:01:55.359Z,37.32
2019-04-22T20:04:37.711Z,37.39
2019-04-22T20:07:06.680Z,37.55
2019-04-22T20:09:46.754Z,37.79
2019-04-22T20:12:04.283Z,38.03
2019-04-22T20:14:41.513Z,38.26
2019-04-22T20:17:09.628Z,38.46
2019-04-22T20:19:50.189Z,38.66
2019-04-22T20:22:12.797Z,39.08
2019-04-22T20:24:29.170Z,39.08
2019-04-22T20:27:20.315Z,39.34
2019-04-22T20:29:49.532Z,39.52
2019-04-22T20:32:23.404Z,39.81
2019-04-22T20:34:59.580Z,39.91
2019-04-22T20:37:33.276Z,40.24
2019-04-22T20:39:53.552Z,40.35
2019-04-22T20:42:38.711Z,40.75
2019-04-22T20:44:57.075Z,41.29
2019-04-22T20:47:23.734Z,41.22
2019-04-22T20:50:04.520Z,41.37
2019-04-22T20:52:38.699Z,41.35
2019-04-22T20:54:58.387Z,41.58
2019-04-22T20:57:34.721Z,41.42
2019-04-22T21:00:02.477Z,41.59
2019-04-22T21:02:31.264Z,41.74
2019-04-22T21:04:58.163Z,41.82
2019-04-22T21:07:32.513Z,41.86
2019-04-22T21:10:10.531Z,41.94
2019-04-22T21:12:34.038Z,42.06
2019-04-22T21:15:19.382Z,42.17
2019-04-22T21:17:44.793Z,42.34
2019-04-22T21:20:21.650Z,42.36
2019-04-22T21:22:48.207Z,42.42
2019-04-22T21:25:15.613Z,42.79
2019-04-22T21:27:52.684Z,43.07
2019-04-22T21:30:19.460Z,43.06
2019-04-22T21:32:49.508Z,43.28
2019-04-22T21:35:40.576Z,43.32
2019-04-22T21:37:57.954Z,43.74
2019-04-22T21:40:28.343Z,44.11
2019-04-22T21:43:02.267Z,44.21
2019-04-22T21:45:25.235Z,44.38
2019-04-22T21:48:14.951Z,44.79
2019-04-22T21:50:48.236Z,44.88
2019-04-22T21:53:06.610Z,45.26
2019-04-22T21:55:43.698Z,45.54
2019-04-22T21:58:34.611Z,45.79
2019-04-22T22:01:03.996Z,45.71
2019-04-22T22:03:23.643Z,46.76
2019-04-22T22:05:45.949Z,46.68
2019-04-22T22:08:32.173Z,46.79
2019-04-22T22:10:57.972Z,47.07
2019-04-22T22:13:30.007Z,47.44
2019-04-22T22:15:58.118Z,47.40
2019-04-22T22:18:24.206Z,48.08
2019-04-22T22:21:20.915Z,48.08
2019-04-22T22:23:38.938Z,48.20
2019-04-22T22:26:02.398Z,48.55
2019-04-22T22:28:53.468Z,48.87
2019-04-22T22:31:15.503Z,48.89
2019-04-22T22:33:41.852Z,48.97
2019-04-22T22:36:08.647Z,49.28
2019-04-22T22:38:56.163Z,49.42
2019-04-22T22:41:12.016Z,49.66
2019-04-22T22:43:46.702Z,49.81
2019-04-22T22:46:26.961Z,50.11
2019-04-22T22:49:06.405Z,50.44
2019-04-22T22:51:45.172Z,50.64
2019-04-22T22:54:11.879Z,50.66
2019-04-22T22:56:47.442Z,50.78
2019-04-22T22:59:08.313Z,51.17
2019-04-22T23:01:39.552Z,51.28
2019-04-22T23:04:21.102Z,51.59
2019-04-22T23:06:48.388Z,51.77
2019-04-22T23:09:14.524Z,51.56
2019-04-22T23:14:16.714Z,52.02
2019-04-22T23:16:37.878Z,51.99
2019-04-22T23:19:06.456Z,52.18
2019-04-22T23:21:41.484Z,52.39
2019-04-22T23:24:28.269Z,52.56
2019-04-22T23:27:10.193Z,52.69
2019-04-22T23:29:44.747Z,52.65
2019-04-22T23:32:25.425Z,52.82
2019-04-22T23:35:10.441Z,53.06
2019-04-22T23:37:44.132Z,53.21
2019-04-22T23:40:22.070Z,53.38
2019-04-22T23:42:44.628Z,53.58
2019-04-22T23:45:15.979Z,53.66
2019-04-22T23:47:39.100Z,54.24
2019-04-22T23:50:24.444Z,54.11
2019-04-22T23:52:52.999Z,54.19
2019-04-22T23:55:25.956Z,54.66
2019-04-22T23:57:58.429Z,54.44
